sensor_id;sensor_type;location;lat;lon;timestamp;P1;durP1;ratioP1;P2;durP2;ratioP2
74044;SDS011;62389;51.412;5.436;2023-06-19T00:01:53;9.93;;;6.75;;
74044;SDS011;62389;51.412;5.436;2023-06-19T00:04:19;8.50;;;6.20;;
74044;SDS011;62389;51.412;5.436;2023-06-19T00:06:44;9.80;;;6.35;;
74044;SDS011;62389;51.412;5.436;2023-06-19T00:09:10;7.82;;;6.25;;
74044;SDS011;62389;51.412;5.436;2023-06-19T00:11:35;9.23;;;6.55;;
74044;SDS011;62389;51.412;5.436;2023-06-19T00:14:01;8.38;;;5.93;;
74044;SDS011;62389;51.412;5.436;2023-06-19T00:16:26;9.45;;;5.82;;
74044;SDS011;62389;51.412;5.436;2023-06-19T00:18:52;8.00;;;6.00;;
74044;SDS011;62389;51.412;5.436;2023-06-19T00:21:20;7.85;;;6.05;;
74044;SDS011;62389;51.412;5.436;2023-06-19T00:23:50;10.20;;;6.65;;
74044;SDS011;62389;51.412;5.436;2023-06-19T00:26:17;8.00;;;6.20;;
74044;SDS011;62389;51.412;5.436;2023-06-19T00:28:42;8.85;;;5.78;;
74044;SDS011;62389;51.412;5.436;2023-06-19T00:31:10;10.52;;;6.85;;
74044;SDS011;62389;51.412;5.436;2023-06-19T00:33:38;8.48;;;6.47;;
74044;SDS011;62389;51.412;5.436;2023-06-19T00:36:08;8.70;;;6.20;;
74044;SDS011;62389;51.412;5.436;2023-06-19T00:38:35;9.00;;;7.00;;
74044;SDS011;62389;51.412;5.436;2023-06-19T00:41:00;8.57;;;5.47;;
74044;SDS011;62389;51.412;5.436;2023-06-19T00:43:26;8.00;;;5.90;;
74044;SDS011;62389;51.412;5.436;2023-06-19T00:45:51;9.85;;;5.63;;
74044;SDS011;62389;51.412;5.436;2023-06-19T00:48:16;8.30;;;5.63;;
74044;SDS011;62389;51.412;5.436;2023-06-19T00:50:42;8.85;;;6.30;;
74044;SDS011;62389;51.412;5.436;2023-06-19T00:53:07;8.68;;;5.35;;
74044;SDS011;62389;51.412;5.436;2023-06-19T00:55:33;7.38;;;5.93;;
74044;SDS011;62389;51.412;5.436;2023-06-19T00:57:59;7.90;;;5.60;;
74044;SDS011;62389;51.412;5.436;2023-06-19T01:00:25;7.75;;;5.47;;
74044;SDS011;62389;51.412;5.436;2023-06-19T01:02:51;6.60;;;4.97;;
74044;SDS011;62389;51.412;5.436;2023-06-19T01:05:16;7.75;;;5.43;;
74044;SDS011;62389;51.412;5.436;2023-06-19T01:10:34;9.48;;;5.28;;
74044;SDS011;62389;51.412;5.436;2023-06-19T01:13:06;8.23;;;5.05;;
74044;SDS011;62389;51.412;5.436;2023-06-19T01:15:37;6.18;;;5.25;;
74044;SDS011;62389;51.412;5.436;2023-06-19T01:18:05;6.75;;;3.97;;
74044;SDS011;62389;51.412;5.436;2023-06-19T01:20:31;7.22;;;4.80;;
74044;SDS011;62389;51.412;5.436;2023-06-19T01:23:04;8.40;;;4.47;;
74044;SDS011;62389;51.412;5.436;2023-06-19T01:25:31;6.95;;;4.68;;
74044;SDS011;62389;51.412;5.436;2023-06-19T01:27:56;7.10;;;4.35;;
74044;SDS011;62389;51.412;5.436;2023-06-19T01:30:22;8.40;;;4.55;;
74044;SDS011;62389;51.412;5.436;2023-06-19T01:35:22;6.32;;;4.00;;
74044;SDS011;62389;51.412;5.436;2023-06-19T01:37:50;6.80;;;4.13;;
74044;SDS011;62389;51.412;5.436;2023-06-19T01:40:17;6.95;;;4.45;;
74044;SDS011;62389;51.412;5.436;2023-06-19T01:42:46;4.43;;;2.80;;
74044;SDS011;62389;51.412;5.436;2023-06-19T01:45:12;5.53;;;3.00;;
74044;SDS011;62389;51.412;5.436;2023-06-19T01:47:37;5.03;;;3.65;;
74044;SDS011;62389;51.412;5.436;2023-06-19T01:50:03;5.40;;;2.65;;
74044;SDS011;62389;51.412;5.436;2023-06-19T01:52:29;6.10;;;3.20;;
74044;SDS011;62389;51.412;5.436;2023-06-19T01:54:54;5.43;;;3.10;;
74044;SDS011;62389;51.412;5.436;2023-06-19T01:57:20;4.78;;;3.58;;
74044;SDS011;62389;51.412;5.436;2023-06-19T01:59:45;5.20;;;2.90;;
74044;SDS011;62389;51.412;5.436;2023-06-19T02:02:10;7.00;;;3.80;;
74044;SDS011;62389;51.412;5.436;2023-06-19T02:04:36;4.72;;;2.90;;
74044;SDS011;62389;51.412;5.436;2023-06-19T02:07:01;4.57;;;2.75;;
74044;SDS011;62389;51.412;5.436;2023-06-19T02:09:27;6.03;;;3.30;;
74044;SDS011;62389;51.412;5.436;2023-06-19T02:11:52;5.18;;;3.13;;
74044;SDS011;62389;51.412;5.436;2023-06-19T02:14:18;5.18;;;2.70;;
74044;SDS011;62389;51.412;5.436;2023-06-19T02:16:43;5.47;;;2.53;;
74044;SDS011;62389;51.412;5.436;2023-06-19T02:19:11;4.60;;;2.83;;
74044;SDS011;62389;51.412;5.436;2023-06-19T02:21:37;5.05;;;3.10;;
74044;SDS011;62389;51.412;5.436;2023-06-19T02:24:03;4.07;;;2.30;;
74044;SDS011;62389;51.412;5.436;2023-06-19T02:26:29;5.00;;;2.65;;
74044;SDS011;62389;51.412;5.436;2023-06-19T02:28:55;4.43;;;2.42;;
74044;SDS011;62389;51.412;5.436;2023-06-19T02:31:21;3.95;;;2.10;;
74044;SDS011;62389;51.412;5.436;2023-06-19T02:33:49;4.20;;;2.28;;
74044;SDS011;62389;51.412;5.436;2023-06-19T02:36:15;4.20;;;2.22;;
74044;SDS011;62389;51.412;5.436;2023-06-19T02:38:47;5.35;;;3.03;;
74044;SDS011;62389;51.412;5.436;2023-06-19T02:41:14;6.55;;;2.70;;
74044;SDS011;62389;51.412;5.436;2023-06-19T02:43:44;4.90;;;2.50;;
74044;SDS011;62389;51.412;5.436;2023-06-19T02:46:13;4.03;;;2.28;;
74044;SDS011;62389;51.412;5.436;2023-06-19T02:48:39;6.07;;;2.50;;
74044;SDS011;62389;51.412;5.436;2023-06-19T02:51:04;4.45;;;2.33;;
74044;SDS011;62389;51.412;5.436;2023-06-19T02:53:30;6.57;;;2.67;;
74044;SDS011;62389;51.412;5.436;2023-06-19T02:55:55;4.20;;;2.28;;
74044;SDS011;62389;51.412;5.436;2023-06-19T02:58:20;4.00;;;2.15;;
74044;SDS011;62389;51.412;5.436;2023-06-19T03:00:46;4.70;;;2.42;;
74044;SDS011;62389;51.412;5.436;2023-06-19T03:03:11;4.13;;;2.63;;
74044;SDS011;62389;51.412;5.436;2023-06-19T03:05:37;4.50;;;2.42;;
74044;SDS011;62389;51.412;5.436;2023-06-19T03:08:03;4.78;;;2.70;;
74044;SDS011;62389;51.412;5.436;2023-06-19T03:10:28;8.10;;;3.00;;
74044;SDS011;62389;51.412;5.436;2023-06-19T03:12:54;4.32;;;2.78;;
74044;SDS011;62389;51.412;5.436;2023-06-19T03:15:19;5.38;;;3.47;;
74044;SDS011;62389;51.412;5.436;2023-06-19T03:17:45;4.57;;;2.67;;
74044;SDS011;62389;51.412;5.436;2023-06-19T03:20:10;4.30;;;2.53;;
74044;SDS011;62389;51.412;5.436;2023-06-19T03:22:39;3.90;;;2.47;;
74044;SDS011;62389;51.412;5.436;2023-06-19T03:25:05;4.68;;;2.80;;
74044;SDS011;62389;51.412;5.436;2023-06-19T03:29:57;4.40;;;2.53;;
74044;SDS011;62389;51.412;5.436;2023-06-19T03:32:23;4.93;;;3.03;;
74044;SDS011;62389;51.412;5.436;2023-06-19T03:34:48;4.35;;;2.88;;
74044;SDS011;62389;51.412;5.436;2023-06-19T03:37:13;5.18;;;2.92;;
74044;SDS011;62389;51.412;5.436;2023-06-19T03:39:39;5.80;;;3.30;;
74044;SDS011;62389;51.412;5.436;2023-06-19T03:42:05;5.95;;;2.60;;
74044;SDS011;62389;51.412;5.436;2023-06-19T03:44:31;5.15;;;2.70;;
74044;SDS011;62389;51.412;5.436;2023-06-19T03:46:56;4.65;;;2.88;;
74044;SDS011;62389;51.412;5.436;2023-06-19T03:49:21;3.58;;;2.70;;
74044;SDS011;62389;51.412;5.436;2023-06-19T03:51:47;5.55;;;3.13;;
74044;SDS011;62389;51.412;5.436;2023-06-19T03:54:12;5.50;;;2.50;;
74044;SDS011;62389;51.412;5.436;2023-06-19T03:56:38;4.72;;;2.67;;
74044;SDS011;62389;51.412;5.436;2023-06-19T03:59:03;4.88;;;3.08;;
74044;SDS011;62389;51.412;5.436;2023-06-19T04:01:29;5.53;;;3.30;;
74044;SDS011;62389;51.412;5.436;2023-06-19T04:03:54;5.90;;;3.20;;
74044;SDS011;62389;51.412;5.436;2023-06-19T04:06:19;5.20;;;3.22;;
74044;SDS011;62389;51.412;5.436;2023-06-19T04:08:45;5.50;;;3.05;;
74044;SDS011;62389;51.412;5.436;2023-06-19T04:11:10;5.57;;;3.35;;
74044;SDS011;62389;51.412;5.436;2023-06-19T04:13:35;4.97;;;3.00;;
74044;SDS011;62389;51.412;5.436;2023-06-19T04:16:01;9.30;;;2.80;;
74044;SDS011;62389;51.412;5.436;2023-06-19T04:18:26;4.97;;;3.22;;
74044;SDS011;62389;51.412;5.436;2023-06-19T04:20:52;5.82;;;3.42;;
74044;SDS011;62389;51.412;5.436;2023-06-19T04:23:18;5.28;;;2.83;;
74044;SDS011;62389;51.412;5.436;2023-06-19T04:25:43;5.65;;;3.45;;
74044;SDS011;62389;51.412;5.436;2023-06-19T04:28:09;3.80;;;2.72;;
74044;SDS011;62389;51.412;5.436;2023-06-19T04:30:34;5.43;;;3.30;;
74044;SDS011;62389;51.412;5.436;2023-06-19T04:32:59;6.90;;;3.33;;
74044;SDS011;62389;51.412;5.436;2023-06-19T04:35:25;6.43;;;3.22;;
74044;SDS011;62389;51.412;5.436;2023-06-19T04:37:51;5.07;;;3.47;;
74044;SDS011;62389;51.412;5.436;2023-06-19T04:40:16;6.45;;;4.13;;
74044;SDS011;62389;51.412;5.436;2023-06-19T04:42:41;5.93;;;3.95;;
74044;SDS011;62389;51.412;5.436;2023-06-19T04:45:07;5.57;;;3.15;;
74044;SDS011;62389;51.412;5.436;2023-06-19T04:47:33;5.90;;;3.65;;
74044;SDS011;62389;51.412;5.436;2023-06-19T04:49:59;6.35;;;3.58;;
74044;SDS011;62389;51.412;5.436;2023-06-19T04:52:24;7.10;;;3.70;;
74044;SDS011;62389;51.412;5.436;2023-06-19T04:54:50;5.22;;;3.72;;
74044;SDS011;62389;51.412;5.436;2023-06-19T04:57:15;5.45;;;3.30;;
74044;SDS011;62389;51.412;5.436;2023-06-19T04:59:41;5.53;;;3.90;;
74044;SDS011;62389;51.412;5.436;2023-06-19T05:02:09;5.70;;;3.80;;
74044;SDS011;62389;51.412;5.436;2023-06-19T05:04:35;5.20;;;3.38;;
74044;SDS011;62389;51.412;5.436;2023-06-19T05:07:01;8.30;;;4.15;;
74044;SDS011;62389;51.412;5.436;2023-06-19T05:09:26;5.50;;;3.80;;
74044;SDS011;62389;51.412;5.436;2023-06-19T05:11:52;5.18;;;3.22;;
74044;SDS011;62389;51.412;5.436;2023-06-19T05:14:17;6.05;;;3.83;;
74044;SDS011;62389;51.412;5.436;2023-06-19T05:16:43;6.88;;;3.40;;
74044;SDS011;62389;51.412;5.436;2023-06-19T05:19:09;5.88;;;3.83;;
74044;SDS011;62389;51.412;5.436;2023-06-19T05:21:34;6.72;;;4.07;;
74044;SDS011;62389;51.412;5.436;2023-06-19T05:24:00;6.00;;;3.90;;
74044;SDS011;62389;51.412;5.436;2023-06-19T05:26:25;6.45;;;3.88;;
74044;SDS011;62389;51.412;5.436;2023-06-19T05:28:51;12.90;;;4.43;;
74044;SDS011;62389;51.412;5.436;2023-06-19T05:31:16;6.43;;;3.40;;
74044;SDS011;62389;51.412;5.436;2023-06-19T05:33:43;7.28;;;5.10;;
74044;SDS011;62389;51.412;5.436;2023-06-19T05:36:08;8.02;;;4.13;;
74044;SDS011;62389;51.412;5.436;2023-06-19T05:38:34;5.72;;;4.47;;
74044;SDS011;62389;51.412;5.436;2023-06-19T05:40:59;8.52;;;3.88;;
74044;SDS011;62389;51.412;5.436;2023-06-19T05:43:25;7.80;;;3.85;;
74044;SDS011;62389;51.412;5.436;2023-06-19T05:45:51;6.30;;;3.90;;
74044;SDS011;62389;51.412;5.436;2023-06-19T05:48:18;7.30;;;3.85;;
74044;SDS011;62389;51.412;5.436;2023-06-19T05:50:43;7.15;;;3.88;;
74044;SDS011;62389;51.412;5.436;2023-06-19T05:53:08;7.90;;;4.20;;
74044;SDS011;62389;51.412;5.436;2023-06-19T05:55:34;8.07;;;4.47;;
74044;SDS011;62389;51.412;5.436;2023-06-19T05:57:59;7.72;;;4.78;;
74044;SDS011;62389;51.412;5.436;2023-06-19T06:00:25;7.32;;;3.97;;
74044;SDS011;62389;51.412;5.436;2023-06-19T06:02:51;5.97;;;4.07;;
74044;SDS011;62389;51.412;5.436;2023-06-19T06:05:16;8.80;;;4.47;;
74044;SDS011;62389;51.412;5.436;2023-06-19T06:07:44;7.32;;;3.97;;
74044;SDS011;62389;51.412;5.436;2023-06-19T06:10:09;8.05;;;4.60;;
74044;SDS011;62389;51.412;5.436;2023-06-19T06:12:35;8.25;;;4.30;;
74044;SDS011;62389;51.412;5.436;2023-06-19T06:15:01;10.48;;;4.25;;
74044;SDS011;62389;51.412;5.436;2023-06-19T06:17:27;9.15;;;4.00;;
74044;SDS011;62389;51.412;5.436;2023-06-19T06:19:53;6.38;;;3.88;;
74044;SDS011;62389;51.412;5.436;2023-06-19T06:22:18;8.23;;;4.15;;
74044;SDS011;62389;51.412;5.436;2023-06-19T06:24:44;8.55;;;4.55;;
74044;SDS011;62389;51.412;5.436;2023-06-19T06:27:11;8.00;;;4.20;;
74044;SDS011;62389;51.412;5.436;2023-06-19T06:29:36;7.07;;;4.38;;
74044;SDS011;62389;51.412;5.436;2023-06-19T06:32:03;10.07;;;4.82;;
74044;SDS011;62389;51.412;5.436;2023-06-19T06:34:30;8.23;;;4.65;;
74044;SDS011;62389;51.412;5.436;2023-06-19T06:36:57;8.27;;;4.57;;
74044;SDS011;62389;51.412;5.436;2023-06-19T06:39:22;8.38;;;4.40;;
74044;SDS011;62389;51.412;5.436;2023-06-19T06:41:48;7.60;;;4.45;;
74044;SDS011;62389;51.412;5.436;2023-06-19T06:44:13;7.15;;;4.32;;
74044;SDS011;62389;51.412;5.436;2023-06-19T06:46:38;7.80;;;4.93;;
74044;SDS011;62389;51.412;5.436;2023-06-19T06:49:04;8.88;;;4.78;;
74044;SDS011;62389;51.412;5.436;2023-06-19T06:51:29;7.95;;;5.05;;
74044;SDS011;62389;51.412;5.436;2023-06-19T06:53:54;8.40;;;5.20;;
74044;SDS011;62389;51.412;5.436;2023-06-19T06:56:20;8.82;;;4.97;;
74044;SDS011;62389;51.412;5.436;2023-06-19T06:58:45;7.82;;;5.30;;
74044;SDS011;62389;51.412;5.436;2023-06-19T07:01:12;9.00;;;5.28;;
74044;SDS011;62389;51.412;5.436;2023-06-19T07:03:37;8.43;;;5.18;;
74044;SDS011;62389;51.412;5.436;2023-06-19T07:06:03;9.30;;;6.35;;
74044;SDS011;62389;51.412;5.436;2023-06-19T07:08:28;9.48;;;5.45;;
74044;SDS011;62389;51.412;5.436;2023-06-19T07:10:53;9.65;;;5.90;;
74044;SDS011;62389;51.412;5.436;2023-06-19T07:13:19;10.00;;;6.93;;
74044;SDS011;62389;51.412;5.436;2023-06-19T07:15:44;9.63;;;6.15;;
74044;SDS011;62389;51.412;5.436;2023-06-19T07:18:09;9.48;;;5.35;;
74044;SDS011;62389;51.412;5.436;2023-06-19T07:20:35;9.48;;;5.90;;
74044;SDS011;62389;51.412;5.436;2023-06-19T07:23:00;9.73;;;5.75;;
74044;SDS011;62389;51.412;5.436;2023-06-19T07:25:26;8.93;;;5.60;;
74044;SDS011;62389;51.412;5.436;2023-06-19T07:27:52;9.38;;;5.93;;
74044;SDS011;62389;51.412;5.436;2023-06-19T07:30:17;9.48;;;6.15;;
74044;SDS011;62389;51.412;5.436;2023-06-19T07:32:42;9.73;;;5.72;;
74044;SDS011;62389;51.412;5.436;2023-06-19T07:35:08;11.18;;;6.30;;
74044;SDS011;62389;51.412;5.436;2023-06-19T07:37:34;10.95;;;6.18;;
74044;SDS011;62389;51.412;5.436;2023-06-19T07:39:59;9.27;;;6.10;;
74044;SDS011;62389;51.412;5.436;2023-06-19T07:42:25;10.00;;;5.88;;
74044;SDS011;62389;51.412;5.436;2023-06-19T07:44:51;8.68;;;5.75;;
74044;SDS011;62389;51.412;5.436;2023-06-19T07:47:16;11.77;;;5.38;;
74044;SDS011;62389;51.412;5.436;2023-06-19T07:52:08;8.05;;;5.47;;
74044;SDS011;62389;51.412;5.436;2023-06-19T07:54:34;8.82;;;5.38;;
74044;SDS011;62389;51.412;5.436;2023-06-19T07:57:00;9.05;;;5.05;;
74044;SDS011;62389;51.412;5.436;2023-06-19T07:59:25;8.48;;;5.40;;
74044;SDS011;62389;51.412;5.436;2023-06-19T08:01:51;9.25;;;5.70;;
74044;SDS011;62389;51.412;5.436;2023-06-19T08:04:16;9.07;;;4.85;;
74044;SDS011;62389;51.412;5.436;2023-06-19T08:06:42;9.45;;;5.82;;
74044;SDS011;62389;51.412;5.436;2023-06-19T08:09:07;11.63;;;5.30;;
74044;SDS011;62389;51.412;5.436;2023-06-19T08:11:33;8.60;;;4.90;;
74044;SDS011;62389;51.412;5.436;2023-06-19T08:13:58;8.43;;;5.43;;
74044;SDS011;62389;51.412;5.436;2023-06-19T08:16:24;10.63;;;5.30;;
74044;SDS011;62389;51.412;5.436;2023-06-19T08:18:50;9.75;;;5.65;;
74044;SDS011;62389;51.412;5.436;2023-06-19T08:21:16;8.73;;;5.35;;
74044;SDS011;62389;51.412;5.436;2023-06-19T08:23:41;7.82;;;5.40;;
74044;SDS011;62389;51.412;5.436;2023-06-19T08:26:08;8.02;;;5.72;;
74044;SDS011;62389;51.412;5.436;2023-06-19T08:28:34;8.52;;;5.30;;
74044;SDS011;62389;51.412;5.436;2023-06-19T08:30:59;9.52;;;6.13;;
74044;SDS011;62389;51.412;5.436;2023-06-19T08:33:25;8.48;;;6.00;;
74044;SDS011;62389;51.412;5.436;2023-06-19T08:35:50;7.13;;;5.60;;
74044;SDS011;62389;51.412;5.436;2023-06-19T08:38:16;9.35;;;5.40;;
74044;SDS011;62389;51.412;5.436;2023-06-19T08:40:42;11.88;;;5.75;;
74044;SDS011;62389;51.412;5.436;2023-06-19T08:43:10;9.10;;;6.53;;
74044;SDS011;62389;51.412;5.436;2023-06-19T08:45:36;8.30;;;5.65;;
74044;SDS011;62389;51.412;5.436;2023-06-19T08:48:02;7.45;;;5.50;;
74044;SDS011;62389;51.412;5.436;2023-06-19T08:52:57;10.23;;;6.05;;
74044;SDS011;62389;51.412;5.436;2023-06-19T08:55:23;9.38;;;5.78;;
74044;SDS011;62389;51.412;5.436;2023-06-19T08:57:49;8.48;;;4.75;;
74044;SDS011;62389;51.412;5.436;2023-06-19T09:00:26;12.10;;;6.55;;
74044;SDS011;62389;51.412;5.436;2023-06-19T09:03:00;8.50;;;6.28;;
74044;SDS011;62389;51.412;5.436;2023-06-19T09:05:27;9.95;;;5.63;;
74044;SDS011;62389;51.412;5.436;2023-06-19T09:07:54;9.20;;;6.15;;
74044;SDS011;62389;51.412;5.436;2023-06-19T09:10:21;10.43;;;5.60;;
74044;SDS011;62389;51.412;5.436;2023-06-19T09:13:04;8.35;;;5.20;;
74044;SDS011;62389;51.412;5.436;2023-06-19T09:15:34;11.38;;;5.80;;
74044;SDS011;62389;51.412;5.436;2023-06-19T09:20:33;8.50;;;5.78;;
74044;SDS011;62389;51.412;5.436;2023-06-19T09:23:01;8.70;;;5.55;;
74044;SDS011;62389;51.412;5.436;2023-06-19T09:25:26;8.52;;;5.28;;
74044;SDS011;62389;51.412;5.436;2023-06-19T09:27:52;7.53;;;5.40;;
74044;SDS011;62389;51.412;5.436;2023-06-19T09:30:19;8.35;;;5.55;;
74044;SDS011;62389;51.412;5.436;2023-06-19T09:32:45;7.80;;;5.00;;
74044;SDS011;62389;51.412;5.436;2023-06-19T09:35:10;8.13;;;5.20;;
74044;SDS011;62389;51.412;5.436;2023-06-19T09:37:35;7.70;;;5.13;;
74044;SDS011;62389;51.412;5.436;2023-06-19T09:40:03;9.80;;;6.28;;
74044;SDS011;62389;51.412;5.436;2023-06-19T09:42:39;7.63;;;5.50;;
74044;SDS011;62389;51.412;5.436;2023-06-19T09:45:10;6.93;;;5.00;;
74044;SDS011;62389;51.412;5.436;2023-06-19T09:47:43;8.57;;;5.55;;
74044;SDS011;62389;51.412;5.436;2023-06-19T09:50:12;12.05;;;5.30;;
74044;SDS011;62389;51.412;5.436;2023-06-19T09:52:42;9.23;;;4.97;;
74044;SDS011;62389;51.412;5.436;2023-06-19T09:55:10;12.93;;;6.15;;
74044;SDS011;62389;51.412;5.436;2023-06-19T09:57:40;12.73;;;7.07;;
74044;SDS011;62389;51.412;5.436;2023-06-19T10:00:07;9.43;;;6.35;;
74044;SDS011;62389;51.412;5.436;2023-06-19T10:02:39;9.40;;;6.57;;
74044;SDS011;62389;51.412;5.436;2023-06-19T10:05:06;8.98;;;6.10;;
74044;SDS011;62389;51.412;5.436;2023-06-19T10:07:36;11.27;;;6.20;;
74044;SDS011;62389;51.412;5.436;2023-06-19T10:12:39;11.40;;;7.75;;
74044;SDS011;62389;51.412;5.436;2023-06-19T10:15:16;10.02;;;5.97;;
74044;SDS011;62389;51.412;5.436;2023-06-19T10:20:45;9.10;;;6.75;;
74044;SDS011;62389;51.412;5.436;2023-06-19T10:25:39;10.00;;;6.45;;
74044;SDS011;62389;51.412;5.436;2023-06-19T10:30:42;10.95;;;7.15;;
74044;SDS011;62389;51.412;5.436;2023-06-19T10:33:07;7.65;;;5.40;;
74044;SDS011;62389;51.412;5.436;2023-06-19T10:35:39;9.15;;;6.72;;
74044;SDS011;62389;51.412;5.436;2023-06-19T10:38:06;9.30;;;6.07;;
74044;SDS011;62389;51.412;5.436;2023-06-19T10:40:33;10.82;;;6.03;;
74044;SDS011;62389;51.412;5.436;2023-06-19T10:43:00;12.32;;;6.80;;
74044;SDS011;62389;51.412;5.436;2023-06-19T10:45:26;10.30;;;7.07;;
74044;SDS011;62389;51.412;5.436;2023-06-19T10:47:53;9.57;;;6.88;;
74044;SDS011;62389;51.412;5.436;2023-06-19T10:52:45;8.88;;;6.75;;
74044;SDS011;62389;51.412;5.436;2023-06-19T10:55:12;10.70;;;6.97;;
74044;SDS011;62389;51.412;5.436;2023-06-19T10:57:40;10.50;;;6.60;;
74044;SDS011;62389;51.412;5.436;2023-06-19T11:00:09;12.45;;;6.97;;
74044;SDS011;62389;51.412;5.436;2023-06-19T11:02:42;12.85;;;6.55;;
74044;SDS011;62389;51.412;5.436;2023-06-19T11:05:11;9.05;;;6.53;;
74044;SDS011;62389;51.412;5.436;2023-06-19T11:07:37;13.07;;;6.30;;
74044;SDS011;62389;51.412;5.436;2023-06-19T11:10:03;10.95;;;6.50;;
74044;SDS011;62389;51.412;5.436;2023-06-19T11:12:30;10.60;;;7.15;;
74044;SDS011;62389;51.412;5.436;2023-06-19T11:14:57;9.63;;;6.45;;
74044;SDS011;62389;51.412;5.436;2023-06-19T11:17:22;11.45;;;6.40;;
74044;SDS011;62389;51.412;5.436;2023-06-19T11:19:49;9.05;;;6.65;;
74044;SDS011;62389;51.412;5.436;2023-06-19T11:22:15;13.60;;;6.78;;
74044;SDS011;62389;51.412;5.436;2023-06-19T11:24:44;9.18;;;6.30;;
74044;SDS011;62389;51.412;5.436;2023-06-19T11:27:17;12.65;;;7.25;;
74044;SDS011;62389;51.412;5.436;2023-06-19T11:29:46;10.07;;;6.78;;
74044;SDS011;62389;51.412;5.436;2023-06-19T11:32:13;11.38;;;6.78;;
74044;SDS011;62389;51.412;5.436;2023-06-19T11:34:40;9.48;;;5.93;;
74044;SDS011;62389;51.412;5.436;2023-06-19T11:37:15;9.13;;;6.50;;
74044;SDS011;62389;51.412;5.436;2023-06-19T11:39:46;8.73;;;6.00;;
74044;SDS011;62389;51.412;5.436;2023-06-19T11:42:13;10.10;;;5.78;;
74044;SDS011;62389;51.412;5.436;2023-06-19T11:47:23;10.80;;;6.43;;
74044;SDS011;62389;51.412;5.436;2023-06-19T11:49:48;10.90;;;6.90;;
74044;SDS011;62389;51.412;5.436;2023-06-19T11:52:15;10.77;;;7.32;;
74044;SDS011;62389;51.412;5.436;2023-06-19T11:54:40;9.65;;;5.93;;
74044;SDS011;62389;51.412;5.436;2023-06-19T11:57:05;10.52;;;6.03;;
74044;SDS011;62389;51.412;5.436;2023-06-19T11:59:31;12.10;;;6.43;;
74044;SDS011;62389;51.412;5.436;2023-06-19T12:01:56;9.05;;;6.00;;
74044;SDS011;62389;51.412;5.436;2023-06-19T12:04:23;11.70;;;6.82;;
74044;SDS011;62389;51.412;5.436;2023-06-19T12:06:49;12.48;;;7.07;;
74044;SDS011;62389;51.412;5.436;2023-06-19T12:09:14;11.75;;;6.68;;
74044;SDS011;62389;51.412;5.436;2023-06-19T12:11:40;8.98;;;6.43;;
74044;SDS011;62389;51.412;5.436;2023-06-19T12:14:05;9.98;;;5.35;;
74044;SDS011;62389;51.412;5.436;2023-06-19T12:16:31;27.08;;;6.85;;
74044;SDS011;62389;51.412;5.436;2023-06-19T12:18:56;11.05;;;5.97;;
74044;SDS011;62389;51.412;5.436;2023-06-19T12:21:21;13.80;;;7.03;;
74044;SDS011;62389;51.412;5.436;2023-06-19T12:23:47;11.90;;;6.28;;
74044;SDS011;62389;51.412;5.436;2023-06-19T12:26:13;11.02;;;6.05;;
74044;SDS011;62389;51.412;5.436;2023-06-19T12:28:38;9.93;;;5.55;;
74044;SDS011;62389;51.412;5.436;2023-06-19T12:31:04;7.85;;;5.72;;
74044;SDS011;62389;51.412;5.436;2023-06-19T12:33:30;10.07;;;6.13;;
74044;SDS011;62389;51.412;5.436;2023-06-19T12:35:58;8.80;;;5.80;;
74044;SDS011;62389;51.412;5.436;2023-06-19T12:38:23;8.13;;;6.15;;
74044;SDS011;62389;51.412;5.436;2023-06-19T12:40:49;9.00;;;5.88;;
74044;SDS011;62389;51.412;5.436;2023-06-19T12:43:14;7.88;;;5.55;;
74044;SDS011;62389;51.412;5.436;2023-06-19T12:45:40;8.68;;;6.05;;
74044;SDS011;62389;51.412;5.436;2023-06-19T12:48:06;8.13;;;5.35;;
74044;SDS011;62389;51.412;5.436;2023-06-19T12:50:32;9.15;;;5.50;;
74044;SDS011;62389;51.412;5.436;2023-06-19T12:52:57;9.10;;;5.72;;
74044;SDS011;62389;51.412;5.436;2023-06-19T12:55:23;7.53;;;5.28;;
74044;SDS011;62389;51.412;5.436;2023-06-19T12:57:48;10.95;;;5.30;;
74044;SDS011;62389;51.412;5.436;2023-06-19T13:00:14;8.73;;;5.50;;
74044;SDS011;62389;51.412;5.436;2023-06-19T13:02:40;9.18;;;5.78;;
74044;SDS011;62389;51.412;5.436;2023-06-19T13:05:15;9.63;;;5.10;;
74044;SDS011;62389;51.412;5.436;2023-06-19T13:07:41;8.95;;;5.35;;
74044;SDS011;62389;51.412;5.436;2023-06-19T13:10:06;10.20;;;5.65;;
74044;SDS011;62389;51.412;5.436;2023-06-19T13:12:32;6.97;;;4.57;;
74044;SDS011;62389;51.412;5.436;2023-06-19T13:14:57;9.68;;;5.60;;
74044;SDS011;62389;51.412;5.436;2023-06-19T13:17:23;8.05;;;4.95;;
74044;SDS011;62389;51.412;5.436;2023-06-19T13:19:49;7.63;;;5.78;;
74044;SDS011;62389;51.412;5.436;2023-06-19T13:22:14;10.00;;;5.35;;
74044;SDS011;62389;51.412;5.436;2023-06-19T13:24:39;8.20;;;5.55;;
74044;SDS011;62389;51.412;5.436;2023-06-19T13:27:05;8.50;;;5.45;;
74044;SDS011;62389;51.412;5.436;2023-06-19T13:29:30;8.45;;;4.50;;
74044;SDS011;62389;51.412;5.436;2023-06-19T13:31:55;8.77;;;5.32;;
74044;SDS011;62389;51.412;5.436;2023-06-19T13:34:21;7.30;;;4.53;;
74044;SDS011;62389;51.412;5.436;2023-06-19T13:36:47;7.57;;;5.15;;
74044;SDS011;62389;51.412;5.436;2023-06-19T13:39:13;6.78;;;5.13;;
74044;SDS011;62389;51.412;5.436;2023-06-19T13:41:39;8.07;;;4.72;;
74044;SDS011;62389;51.412;5.436;2023-06-19T13:44:04;8.32;;;4.78;;
74044;SDS011;62389;51.412;5.436;2023-06-19T13:46:30;6.95;;;4.60;;
74044;SDS011;62389;51.412;5.436;2023-06-19T13:48:56;6.93;;;4.25;;
74044;SDS011;62389;51.412;5.436;2023-06-19T13:51:22;9.40;;;4.55;;
74044;SDS011;62389;51.412;5.436;2023-06-19T13:53:49;10.75;;;4.57;;
74044;SDS011;62389;51.412;5.436;2023-06-19T13:56:15;8.23;;;4.72;;
74044;SDS011;62389;51.412;5.436;2023-06-19T13:58:40;6.38;;;4.15;;
74044;SDS011;62389;51.412;5.436;2023-06-19T14:01:06;8.50;;;4.72;;
74044;SDS011;62389;51.412;5.436;2023-06-19T14:03:31;7.85;;;4.93;;
74044;SDS011;62389;51.412;5.436;2023-06-19T14:05:57;6.80;;;4.75;;
74044;SDS011;62389;51.412;5.436;2023-06-19T14:08:23;8.20;;;5.25;;
74044;SDS011;62389;51.412;5.436;2023-06-19T14:10:49;10.50;;;4.78;;
74044;SDS011;62389;51.412;5.436;2023-06-19T14:13:14;8.52;;;4.95;;
74044;SDS011;62389;51.412;5.436;2023-06-19T14:15:40;6.60;;;4.32;;
74044;SDS011;62389;51.412;5.436;2023-06-19T14:18:06;6.45;;;4.53;;
74044;SDS011;62389;51.412;5.436;2023-06-19T14:20:31;10.50;;;4.55;;
74044;SDS011;62389;51.412;5.436;2023-06-19T14:22:57;5.60;;;3.92;;
74044;SDS011;62389;51.412;5.436;2023-06-19T14:25:22;8.55;;;4.78;;
74044;SDS011;62389;51.412;5.436;2023-06-19T14:27:47;6.70;;;4.80;;
74044;SDS011;62389;51.412;5.436;2023-06-19T14:30:13;8.55;;;5.18;;
74044;SDS011;62389;51.412;5.436;2023-06-19T14:32:38;9.38;;;5.75;;
74044;SDS011;62389;51.412;5.436;2023-06-19T14:35:04;7.85;;;4.63;;
74044;SDS011;62389;51.412;5.436;2023-06-19T14:37:30;7.38;;;4.70;;
74044;SDS011;62389;51.412;5.436;2023-06-19T14:39:55;10.00;;;5.85;;
74044;SDS011;62389;51.412;5.436;2023-06-19T14:42:21;5.97;;;3.72;;
74044;SDS011;62389;51.412;5.436;2023-06-19T14:44:47;7.82;;;4.40;;
74044;SDS011;62389;51.412;5.436;2023-06-19T14:47:12;8.13;;;4.70;;
74044;SDS011;62389;51.412;5.436;2023-06-19T14:49:37;6.88;;;4.60;;
74044;SDS011;62389;51.412;5.436;2023-06-19T14:52:03;6.43;;;4.20;;
74044;SDS011;62389;51.412;5.436;2023-06-19T14:54:29;9.60;;;4.68;;
74044;SDS011;62389;51.412;5.436;2023-06-19T14:56:55;7.30;;;4.80;;
74044;SDS011;62389;51.412;5.436;2023-06-19T14:59:20;8.32;;;4.88;;
74044;SDS011;62389;51.412;5.436;2023-06-19T15:01:46;6.80;;;5.20;;
74044;SDS011;62389;51.412;5.436;2023-06-19T15:04:11;7.63;;;4.22;;
74044;SDS011;62389;51.412;5.436;2023-06-19T15:06:36;8.55;;;4.30;;
74044;SDS011;62389;51.412;5.436;2023-06-19T15:09:02;8.23;;;4.80;;
74044;SDS011;62389;51.412;5.436;2023-06-19T15:11:27;8.85;;;5.28;;